Time,TemperatureF,DewpointF,PressureIn,WindDirection,WindDirectionDegrees,WindSpeedMPH,WindSpeedGustMPH,Humidity,HourlyPrecipIn,Conditions,Clouds,dailyrainin,SoftwareType,DateUTC
2013-05-07 00:02:00,58.0,42.0,-100.00,SE,128,9.0,11.0,56,0.00,,,-99.99,,2013-05-07 06:02:00,
2013-05-07 00:12:00,60.0,40.0,-100.00,SSE,164,14.0,20.0,49,0.00,,,-99.99,,2013-05-07 06:12:00,
2013-05-07 00:22:00,58.0,42.0,-100.00,SSE,162,18.0,22.0,54,0.00,,,-99.99,,2013-05-07 06:22:00,
2013-05-07 00:32:00,58.0,42.0,-100.00,SSE,162,18.0,22.0,54,0.00,,,-99.99,,2013-05-07 06:32:00,
2013-05-07 00:41:00,58.0,43.0,-100.00,SSE,165,16.0,24.0,56,0.00,,,-99.99,,2013-05-07 06:41:00,
2013-05-07 00:52:00,58.0,43.0,-100.00,South,176,15.0,20.0,57,0.00,,,-99.99,,2013-05-07 06:52:00,
2013-05-07 01:01:00,58.0,43.0,-100.00,South,176,15.0,20.0,57,0.00,,,-99.99,,2013-05-07 07:01:00,
2013-05-07 01:11:00,56.0,45.0,-100.00,South,186,15.0,19.0,68,0.04,,,-99.99,,2013-05-07 07:11:00,
2013-05-07 01:22:00,55.0,46.0,-100.00,SSW,193,12.0,14.0,71,0.04,,,-99.99,,2013-05-07 07:22:00,
2013-05-07 01:31:00,55.0,46.0,-100.00,SSW,193,12.0,14.0,71,0.04,,,-99.99,,2013-05-07 07:31:00,
2013-05-07 01:42:00,55.0,46.0,-100.00,SSW,195,10.0,15.0,72,0.00,,,-99.99,,2013-05-07 07:42:00,
2013-05-07 01:52:00,54.0,47.0,-100.00,SSW,192,11.0,13.0,77,0.04,,,-99.99,,2013-05-07 07:52:00,
2013-05-07 02:02:00,54.0,47.0,-100.00,SSW,192,11.0,13.0,77,0.04,,,-99.99,,2013-05-07 08:02:00,
2013-05-07 02:11:00,53.0,47.0,-100.00,South,175,8.0,10.0,79,0.00,,,-99.99,,2013-05-07 08:11:00,
2013-05-07 02:21:00,53.0,47.0,-100.00,South,169,7.0,9.0,81,0.00,,,-99.99,,2013-05-07 08:21:00,
2013-05-07 02:30:00,53.0,46.0,-100.00,SSE,165,7.0,9.0,76,0.00,,,-99.99,,2013-05-07 08:30:00,
2013-05-07 02:31:00,53.0,47.0,-100.00,South,169,7.0,9.0,81,0.00,,,-99.99,,2013-05-07 08:31:00,
2013-05-07 02:41:00,52.0,47.0,-100.00,South,169,8.0,10.0,83,0.00,,,-99.99,,2013-05-07 08:41:00,
2013-05-07 02:52:00,53.0,46.0,-100.00,SSE,165,7.0,9.0,76,0.00,,,-99.99,,2013-05-07 08:52:00,
2013-05-07 03:01:00,53.0,46.0,-100.00,SSE,165,7.0,9.0,76,0.00,,,-99.99,,2013-05-07 09:01:00,
2013-05-07 03:11:00,53.0,46.0,-100.00,SSE,165,7.0,9.0,76,0.00,,,-99.99,,2013-05-07 09:11:00,
2013-05-07 03:22:00,53.0,46.0,-100.00,SSE,165,7.0,9.0,76,0.00,,,-99.99,,2013-05-07 09:22:00,
2013-05-07 03:43:00,50.0,47.0,-100.00,SSW,203,3.0,4.0,89,0.00,,,-99.99,,2013-05-07 09:43:00,
2013-05-07 03:52:00,49.0,46.0,-100.00,SSE,155,3.0,5.0,90,0.00,,,-99.99,,2013-05-07 09:52:00,
2013-05-07 04:02:00,49.0,46.0,-100.00,SSE,155,3.0,5.0,90,0.00,,,-99.99,,2013-05-07 10:02:00,
2013-05-07 04:12:00,49.0,46.0,-100.00,SSE,155,3.0,5.0,90,0.00,,,-99.99,,2013-05-07 10:12:00,
2013-05-07 04:22:00,49.0,46.0,-100.00,SSE,155,3.0,5.0,90,0.00,,,-99.99,,2013-05-07 10:22:00,
2013-05-07 04:32:00,49.0,45.0,-100.00,SE,134,5.0,6.0,85,0.00,,,-99.99,,2013-05-07 10:32:00,
2013-05-07 04:42:00,49.0,45.0,-100.00,SE,134,5.0,6.0,85,0.00,,,-99.99,,2013-05-07 10:42:00,
2013-05-07 04:52:00,50.0,46.0,-100.00,SSW,198,5.0,6.0,87,0.00,,,-99.99,,2013-05-07 10:52:00,
2013-05-07 05:02:00,50.0,46.0,-100.00,SSW,198,5.0,6.0,87,0.00,,,-99.99,,2013-05-07 11:02:00,
2013-05-07 05:12:00,51.0,45.0,-100.00,SE,134,8.0,11.0,79,0.00,,,-99.99,,2013-05-07 11:12:00,
2013-05-07 05:22:00,53.0,44.0,-100.00,SE,131,9.0,12.0,74,0.00,,,-99.99,,2013-05-07 11:22:00,
2013-05-07 05:32:00,53.0,44.0,-100.00,SE,131,9.0,12.0,74,0.00,,,-99.99,,2013-05-07 11:32:00,
2013-05-07 05:42:00,53.0,44.0,-100.00,SE,131,9.0,12.0,74,0.00,,,-99.99,,2013-05-07 11:42:00,
2013-05-07 05:52:00,51.0,45.0,-100.00,SSE,158,5.0,11.0,79,0.00,,,-99.99,,2013-05-07 11:52:00,
2013-05-07 06:01:00,51.0,45.0,-100.00,SSE,158,5.0,11.0,79,0.00,,,-99.99,,2013-05-07 12:01:00,
2013-05-07 06:11:00,53.0,45.0,-100.00,South,189,6.0,9.0,75,0.00,,,-99.99,,2013-05-07 12:11:00,
2013-05-07 06:21:00,52.0,45.0,-100.00,SSE,150,7.0,8.0,76,0.00,,,-99.99,,2013-05-07 12:21:00,
2013-05-07 06:32:00,52.0,45.0,-100.00,SSE,150,7.0,8.0,76,0.00,,,-99.99,,2013-05-07 12:32:00,
2013-05-07 06:41:00,52.0,45.0,-100.00,SSE,150,7.0,8.0,76,0.00,,,-99.99,,2013-05-07 12:41:00,
2013-05-07 06:52:00,53.0,45.0,-100.00,SSE,160,9.0,12.0,75,0.00,,,-99.99,,2013-05-07 12:52:00,
2013-05-07 07:01:00,53.0,45.0,-100.00,SSE,160,9.0,12.0,75,0.00,,,-99.99,,2013-05-07 13:01:00,
2013-05-07 07:11:00,53.0,45.0,-100.00,South,176,7.0,10.0,75,0.00,,,-99.99,,2013-05-07 13:11:00,
2013-05-07 07:21:00,53.0,45.0,-100.00,South,182,7.0,10.0,74,0.00,,,-99.99,,2013-05-07 13:21:00,
2013-05-07 07:32:00,53.0,45.0,-100.00,South,182,7.0,10.0,74,0.00,,,-99.99,,2013-05-07 13:32:00,
2013-05-07 07:42:00,53.0,45.0,-100.00,South,182,7.0,10.0,74,0.00,,,-99.99,,2013-05-07 13:42:00,
2013-05-07 07:52:00,53.0,45.0,-100.00,SSE,158,7.0,9.0,75,0.00,,,-99.99,,2013-05-07 13:52:00,
2013-05-07 08:01:00,53.0,45.0,-100.00,SSE,158,7.0,9.0,75,0.00,,,-99.99,,2013-05-07 14:01:00,
2013-05-07 08:11:00,53.0,45.0,-100.00,SSE,158,9.0,11.0,75,0.00,,,-99.99,,2013-05-07 14:11:00,
2013-05-07 08:21:00,53.0,45.0,-100.00,SSE,150,7.0,12.0,74,0.00,,,-99.99,,2013-05-07 14:21:00,
2013-05-07 08:31:00,53.0,45.0,-100.00,SSE,150,7.0,12.0,74,0.00,,,-99.99,,2013-05-07 14:31:00,
2013-05-07 08:42:00,53.0,46.0,-100.00,SSE,147,6.0,9.0,77,0.00,,,-99.99,,2013-05-07 14:42:00,
2013-05-07 08:52:00,53.0,46.0,-100.00,SSE,147,6.0,9.0,77,0.00,,,-99.99,,2013-05-07 14:52:00,
2013-05-07 09:01:00,53.0,46.0,-100.00,SSE,147,6.0,9.0,77,0.00,,,-99.99,,2013-05-07 15:01:00,
2013-05-07 09:12:00,53.0,47.0,-100.00,SE,144,8.0,11.0,79,0.00,,,-99.99,,2013-05-07 15:12:00,
2013-05-07 09:21:00,53.0,47.0,-100.00,SE,134,7.0,11.0,78,0.00,,,-99.99,,2013-05-07 15:21:00,
2013-05-07 09:33:00,53.0,47.0,-100.00,SE,134,7.0,11.0,78,0.00,,,-99.99,,2013-05-07 15:33:00,
2013-05-07 09:42:00,54.0,48.0,-100.00,SE,130,9.0,13.0,80,0.16,,,-99.99,,2013-05-07 15:42:00,
2013-05-07 09:53:00,54.0,48.0,-100.00,SE,130,9.0,13.0,80,0.16,,,-99.99,,2013-05-07 15:53:00,
2013-05-07 10:03:00,54.0,48.0,-100.00,SE,130,9.0,13.0,80,0.16,,,-99.99,,2013-05-07 16:03:00,
2013-05-07 10:12:00,55.0,47.0,-100.00,South,181,7.0,11.0,73,0.00,,,-99.99,,2013-05-07 16:12:00,
2013-05-07 10:22:00,56.0,47.0,-100.00,South,184,8.0,11.0,71,0.00,,,-99.99,,2013-05-07 16:22:00,
2013-05-07 10:32:00,56.0,47.0,-100.00,South,184,8.0,11.0,71,0.00,,,-99.99,,2013-05-07 16:32:00,
2013-05-07 10:41:00,57.0,47.0,-100.00,SSW,198,8.0,14.0,69,0.00,,,-99.99,,2013-05-07 16:41:00,
2013-05-07 10:52:00,57.0,47.0,-100.00,SSW,198,8.0,14.0,69,0.00,,,-99.99,,2013-05-07 16:52:00,
2013-05-07 11:01:00,57.0,47.0,-100.00,SSW,198,8.0,14.0,69,0.00,,,-99.99,,2013-05-07 17:01:00,
2013-05-07 11:12:00,56.0,46.0,-100.00,South,174,9.0,13.0,68,0.00,,,-99.99,,2013-05-07 17:12:00,
2013-05-07 11:21:00,56.0,46.0,-100.00,South,174,9.0,13.0,68,0.00,,,-99.99,,2013-05-07 17:21:00,
2013-05-07 11:31:00,56.0,46.0,-100.00,South,174,9.0,13.0,68,0.00,,,-99.99,,2013-05-07 17:31:00,
2013-05-07 11:41:00,57.0,47.0,-100.00,South,181,7.0,10.0,69,0.00,,,-99.99,,2013-05-07 17:41:00,
2013-05-07 11:52:00,56.0,46.0,-100.00,South,182,14.0,17.0,69,0.00,,,-99.99,,2013-05-07 17:52:00,
2013-05-07 12:01:00,56.0,46.0,-100.00,South,182,14.0,17.0,69,0.00,,,-99.99,,2013-05-07 18:01:00,
2013-05-07 12:11:00,57.0,45.0,-100.00,South,179,14.0,17.0,64,0.00,,,-99.99,,2013-05-07 18:11:00,
2013-05-07 12:21:00,56.0,45.0,-100.00,South,188,15.0,21.0,66,0.00,,,-99.99,,2013-05-07 18:21:00,
2013-05-07 12:30:00,58.0,44.0,-100.00,South,191,16.0,23.0,59,0.00,,,-99.99,,2013-05-07 18:30:00,
2013-05-07 12:31:00,56.0,45.0,-100.00,South,188,15.0,21.0,66,0.00,,,-99.99,,2013-05-07 18:31:00,
2013-05-07 12:41:00,56.0,44.0,-100.00,SSW,193,18.0,24.0,63,0.00,,,-99.99,,2013-05-07 18:41:00,
2013-05-07 12:52:00,58.0,44.0,-100.00,South,191,16.0,23.0,59,0.00,,,-99.99,,2013-05-07 18:52:00,
2013-05-07 13:02:00,58.0,44.0,-100.00,South,191,16.0,23.0,59,0.00,,,-99.99,,2013-05-07 19:02:00,
2013-05-07 13:11:00,58.0,44.0,-100.00,South,191,16.0,23.0,59,0.00,,,-99.99,,2013-05-07 19:11:00,
2013-05-07 13:21:00,58.0,44.0,-100.00,South,191,16.0,23.0,59,0.00,,,-99.99,,2013-05-07 19:21:00,
2013-05-07 13:42:00,57.0,44.0,-100.00,SSW,196,17.0,22.0,62,0.00,,,-99.99,,2013-05-07 19:42:00,
2013-05-07 13:52:00,56.0,43.0,-100.00,South,191,17.0,22.0,61,0.00,,,-99.99,,2013-05-07 19:52:00,
2013-05-07 14:02:00,56.0,43.0,-100.00,South,191,17.0,22.0,61,0.00,,,-99.99,,2013-05-07 20:02:00,
2013-05-07 14:11:00,57.0,44.0,-100.00,SSW,193,15.0,20.0,60,0.00,,,-99.99,,2013-05-07 20:11:00,
2013-05-07 14:21:00,57.0,43.0,-100.00,SSW,193,18.0,24.0,59,0.00,,,-99.99,,2013-05-07 20:21:00,
2013-05-07 14:32:00,57.0,43.0,-100.00,SSW,193,18.0,24.0,59,0.00,,,-99.99,,2013-05-07 20:32:00,
2013-05-07 14:41:00,57.0,42.0,-100.00,SSW,199,17.0,26.0,57,0.00,,,-99.99,,2013-05-07 20:41:00,
2013-05-07 14:52:00,56.0,41.0,-100.00,SSW,192,16.0,21.0,56,0.00,,,-99.99,,2013-05-07 20:52:00,
2013-05-07 15:01:00,56.0,41.0,-100.00,SSW,192,16.0,21.0,56,0.00,,,-99.99,,2013-05-07 21:01:00,
2013-05-07 15:11:00,57.0,42.0,-100.00,South,182,17.0,23.0,56,0.00,,,-99.99,,2013-05-07 21:11:00,
2013-05-07 15:21:00,57.0,41.0,-100.00,South,178,18.0,26.0,55,0.00,,,-99.99,,2013-05-07 21:21:00,
2013-05-07 15:32:00,57.0,41.0,-100.00,South,178,18.0,26.0,55,0.00,,,-99.99,,2013-05-07 21:32:00,
2013-05-07 15:42:00,57.0,41.0,-100.00,South,178,18.0,26.0,55,0.00,,,-99.99,,2013-05-07 21:42:00,
2013-05-07 15:53:00,58.0,41.0,-100.00,South,191,15.0,19.0,54,0.00,,,-99.99,,2013-05-07 21:53:00,
2013-05-07 16:02:00,58.0,41.0,-100.00,South,191,15.0,19.0,54,0.00,,,-99.99,,2013-05-07 22:02:00,
2013-05-07 16:13:00,59.0,40.0,-100.00,South,176,14.0,17.0,50,0.00,,,-99.99,,2013-05-07 22:13:00,
2013-05-07 16:22:00,58.0,41.0,-100.00,SSW,195,12.0,16.0,54,0.00,,,-99.99,,2013-05-07 22:22:00,
2013-05-07 16:32:00,58.0,41.0,-100.00,SSW,195,12.0,16.0,54,0.00,,,-99.99,,2013-05-07 22:32:00,
2013-05-07 16:42:00,58.0,41.0,-100.00,SSW,195,12.0,16.0,54,0.00,,,-99.99,,2013-05-07 22:42:00,
2013-05-07 16:52:00,59.0,42.0,-100.00,SSW,195,13.0,17.0,53,0.00,,,-99.99,,2013-05-07 22:52:00,
2013-05-07 17:01:00,59.0,42.0,-100.00,SSW,195,13.0,17.0,53,0.00,,,-99.99,,2013-05-07 23:01:00,
2013-05-07 17:12:00,58.0,42.0,-100.00,SSW,196,10.0,13.0,54,0.00,,,-99.99,,2013-05-07 23:12:00,
2013-05-07 17:21:00,59.0,42.0,-100.00,South,189,8.0,12.0,53,0.00,,,-99.99,,2013-05-07 23:21:00,
2013-05-07 17:32:00,59.0,42.0,-100.00,South,189,8.0,12.0,53,0.00,,,-99.99,,2013-05-07 23:32:00,
2013-05-07 17:41:00,59.0,42.0,-100.00,South,189,8.0,12.0,53,0.00,,,-99.99,,2013-05-07 23:41:00,
2013-05-07 17:52:00,59.0,42.0,-100.00,SSE,161,8.0,10.0,52,0.00,,,-99.99,,2013-05-07 23:52:00,
2013-05-07 18:01:00,59.0,42.0,-100.00,SSE,161,8.0,10.0,52,0.00,,,-99.99,,2013-05-08 00:01:00,
2013-05-07 18:11:00,60.0,41.0,-100.00,SSE,161,6.0,8.0,49,0.00,,,-99.99,,2013-05-08 00:11:00,
2013-05-07 18:21:00,60.0,41.0,-100.00,WNW,288,2.0,4.0,50,0.00,,,-99.99,,2013-05-08 00:21:00,
2013-05-07 18:32:00,60.0,41.0,-100.00,WNW,288,2.0,4.0,50,0.00,,,-99.99,,2013-05-08 00:32:00,
2013-05-07 18:42:00,60.0,41.0,-100.00,WNW,288,2.0,4.0,50,0.00,,,-99.99,,2013-05-08 00:42:00,
2013-05-07 18:52:00,60.0,41.0,-100.00,SSW,209,4.0,6.0,49,0.00,,,-99.99,,2013-05-08 00:52:00,
2013-05-07 19:02:00,60.0,41.0,-100.00,SSW,209,4.0,6.0,49,0.00,,,-99.99,,2013-05-08 01:02:00,
2013-05-07 19:11:00,60.0,41.0,-100.00,SSW,209,4.0,6.0,49,0.00,,,-99.99,,2013-05-08 01:11:00,
2013-05-07 21:52:00,53.0,44.0,-100.00,SE,127,7.0,9.0,69,0.00,,,-99.99,,2013-05-08 03:52:00,
2013-05-07 22:02:00,53.0,44.0,-100.00,SE,127,7.0,9.0,69,0.00,,,-99.99,,2013-05-08 04:02:00,
2013-05-07 22:12:00,53.0,44.0,-100.00,SE,127,7.0,9.0,69,0.00,,,-99.99,,2013-05-08 04:12:00,
2013-05-07 22:22:00,53.0,43.0,-100.00,SE,128,7.0,8.0,68,0.00,,,-99.99,,2013-05-08 04:22:00,
2013-05-07 22:32:00,53.0,43.0,-100.00,SE,128,7.0,8.0,68,0.00,,,-99.99,,2013-05-08 04:32:00,
2013-05-07 22:42:00,52.0,43.0,-100.00,SE,138,6.0,7.0,71,0.00,,,-99.99,,2013-05-08 04:42:00,
2013-05-07 22:53:00,52.0,42.0,-100.00,SE,130,6.0,8.0,69,0.00,,,-99.99,,2013-05-08 04:53:00,
2013-05-07 23:02:00,52.0,42.0,-100.00,SE,130,6.0,8.0,69,0.00,,,-99.99,,2013-05-08 05:02:00,
2013-05-07 23:12:00,52.0,42.0,-100.00,SE,130,6.0,8.0,69,0.00,,,-99.99,,2013-05-08 05:12:00,
2013-05-07 23:22:00,53.0,44.0,-100.00,SE,137,5.0,7.0,71,0.00,,,-99.99,,2013-05-08 05:22:00,
2013-05-07 23:32:00,53.0,44.0,-100.00,SE,137,5.0,7.0,71,0.00,,,-99.99,,2013-05-08 05:32:00,
2013-05-07 23:42:00,53.0,45.0,-100.00,SE,145,6.0,8.0,74,0.00,,,-99.99,,2013-05-08 05:42:00,
2013-05-07 23:52:00,53.0,45.0,-100.00,South,181,7.0,10.0,73,0.00,,,-99.99,,2013-05-08 05:52:00,